sensor_id;sensor_type;location;lat;lon;timestamp;temperature;humidity
72883;DHT22;61017;37.812;-122.286;2023-03-11T00:01:31;14.60;70.50
72883;DHT22;61017;37.812;-122.286;2023-03-11T00:03:04;14.60;70.30
72883;DHT22;61017;37.812;-122.286;2023-03-11T00:04:35;14.60;70.40
72883;DHT22;61017;37.812;-122.286;2023-03-11T00:06:06;14.60;71.70
72883;DHT22;61017;37.812;-122.286;2023-03-11T00:07:38;14.60;71.50
72883;DHT22;61017;37.812;-122.286;2023-03-11T00:09:09;14.60;70.90
72883;DHT22;61017;37.812;-122.286;2023-03-11T00:10:43;14.60;70.60
72883;DHT22;61017;37.812;-122.286;2023-03-11T00:12:15;14.60;70.50
72883;DHT22;61017;37.812;-122.286;2023-03-11T00:13:46;14.60;70.10
72883;DHT22;61017;37.812;-122.286;2023-03-11T00:15:19;14.60;69.90
72883;DHT22;61017;37.812;-122.286;2023-03-11T00:16:50;14.60;70.10
72883;DHT22;61017;37.812;-122.286;2023-03-11T00:18:24;14.60;71.30
72883;DHT22;61017;37.812;-122.286;2023-03-11T00:19:56;14.60;71.00
72883;DHT22;61017;37.812;-122.286;2023-03-11T00:21:28;14.60;70.90
72883;DHT22;61017;37.812;-122.286;2023-03-11T00:23:00;14.60;70.50
72883;DHT22;61017;37.812;-122.286;2023-03-11T00:24:33;14.60;70.20
72883;DHT22;61017;37.812;-122.286;2023-03-11T00:26:04;14.70;70.00
72883;DHT22;61017;37.812;-122.286;2023-03-11T00:27:36;14.70;70.00
72883;DHT22;61017;37.812;-122.286;2023-03-11T00:29:08;14.70;70.90
72883;DHT22;61017;37.812;-122.286;2023-03-11T00:30:41;14.60;71.00
72883;DHT22;61017;37.812;-122.286;2023-03-11T00:32:12;14.70;71.00
72883;DHT22;61017;37.812;-122.286;2023-03-11T00:33:44;14.70;70.70
72883;DHT22;61017;37.812;-122.286;2023-03-11T00:35:18;14.70;70.40
72883;DHT22;61017;37.812;-122.286;2023-03-11T00:36:53;14.70;70.10
72883;DHT22;61017;37.812;-122.286;2023-03-11T00:38:25;14.70;69.80
72883;DHT22;61017;37.812;-122.286;2023-03-11T00:39:56;14.70;70.00
72883;DHT22;61017;37.812;-122.286;2023-03-11T00:41:28;14.60;71.30
72883;DHT22;61017;37.812;-122.286;2023-03-11T00:42:59;14.70;71.40
72883;DHT22;61017;37.812;-122.286;2023-03-11T00:44:31;14.70;70.70
72883;DHT22;61017;37.812;-122.286;2023-03-11T00:46:02;14.70;70.60
72883;DHT22;61017;37.812;-122.286;2023-03-11T00:47:34;14.70;70.40
72883;DHT22;61017;37.812;-122.286;2023-03-11T00:49:05;14.70;69.90
72883;DHT22;61017;37.812;-122.286;2023-03-11T00:50:37;14.70;69.50
72883;DHT22;61017;37.812;-122.286;2023-03-11T00:52:09;14.70;70.30
72883;DHT22;61017;37.812;-122.286;2023-03-11T00:53:41;14.70;71.30
72883;DHT22;61017;37.812;-122.286;2023-03-11T00:55:15;14.70;71.20
72883;DHT22;61017;37.812;-122.286;2023-03-11T00:56:47;14.70;70.50
72883;DHT22;61017;37.812;-122.286;2023-03-11T00:58:19;14.70;70.30
72883;DHT22;61017;37.812;-122.286;2023-03-11T00:59:50;14.70;70.00
72883;DHT22;61017;37.812;-122.286;2023-03-11T01:01:22;14.70;69.80
72883;DHT22;61017;37.812;-122.286;2023-03-11T01:02:55;14.70;69.40
72883;DHT22;61017;37.812;-122.286;2023-03-11T01:04:27;14.70;70.40
72883;DHT22;61017;37.812;-122.286;2023-03-11T01:05:59;14.70;71.30
72883;DHT22;61017;37.812;-122.286;2023-03-11T01:07:31;14.70;70.80
72883;DHT22;61017;37.812;-122.286;2023-03-11T01:09:03;14.70;70.60
72883;DHT22;61017;37.812;-122.286;2023-03-11T01:10:35;14.70;70.50
72883;DHT22;61017;37.812;-122.286;2023-03-11T01:12:07;14.70;69.70
72883;DHT22;61017;37.812;-122.286;2023-03-11T01:13:39;14.70;69.50
72883;DHT22;61017;37.812;-122.286;2023-03-11T01:15:25;14.70;69.50
72883;DHT22;61017;37.812;-122.286;2023-03-11T01:16:57;14.70;71.00
72883;DHT22;61017;37.812;-122.286;2023-03-11T01:18:29;14.70;70.80
72883;DHT22;61017;37.812;-122.286;2023-03-11T01:20:00;14.80;70.40
72883;DHT22;61017;37.812;-122.286;2023-03-11T01:21:32;14.80;70.30
72883;DHT22;61017;37.812;-122.286;2023-03-11T01:23:04;14.80;70.00
72883;DHT22;61017;37.812;-122.286;2023-03-11T01:24:36;14.80;69.60
72883;DHT22;61017;37.812;-122.286;2023-03-11T01:26:08;14.70;69.40
72883;DHT22;61017;37.812;-122.286;2023-03-11T01:27:39;14.70;70.10
72883;DHT22;61017;37.812;-122.286;2023-03-11T01:29:11;14.70;70.90
72883;DHT22;61017;37.812;-122.286;2023-03-11T01:30:43;14.70;70.40
72883;DHT22;61017;37.812;-122.286;2023-03-11T01:32:15;14.70;70.20
72883;DHT22;61017;37.812;-122.286;2023-03-11T01:33:46;14.80;70.00
72883;DHT22;61017;37.812;-122.286;2023-03-11T01:35:20;14.80;69.60
72883;DHT22;61017;37.812;-122.286;2023-03-11T01:36:52;14.80;69.30
72883;DHT22;61017;37.812;-122.286;2023-03-11T01:38:24;14.80;69.40
72883;DHT22;61017;37.812;-122.286;2023-03-11T01:39:56;14.70;70.20
72883;DHT22;61017;37.812;-122.286;2023-03-11T01:41:28;14.80;71.00
72883;DHT22;61017;37.812;-122.286;2023-03-11T01:43:00;14.80;70.00
72883;DHT22;61017;37.812;-122.286;2023-03-11T01:44:32;14.80;70.00
72883;DHT22;61017;37.812;-122.286;2023-03-11T01:47:46;14.80;69.30
72883;DHT22;61017;37.812;-122.286;2023-03-11T01:49:18;14.80;69.00
72883;DHT22;61017;37.812;-122.286;2023-03-11T01:50:50;14.80;69.60
72883;DHT22;61017;37.812;-122.286;2023-03-11T01:52:22;14.80;70.60
72883;DHT22;61017;37.812;-122.286;2023-03-11T01:53:55;14.80;70.10
72883;DHT22;61017;37.812;-122.286;2023-03-11T01:55:28;14.80;70.00
72883;DHT22;61017;37.812;-122.286;2023-03-11T01:57:00;14.80;69.60
72883;DHT22;61017;37.812;-122.286;2023-03-11T01:58:38;14.80;69.40
72883;DHT22;61017;37.812;-122.286;2023-03-11T02:00:12;14.80;69.20
72883;DHT22;61017;37.812;-122.286;2023-03-11T02:01:48;14.80;69.20
72883;DHT22;61017;37.812;-122.286;2023-03-11T02:03:30;14.80;69.90
72883;DHT22;61017;37.812;-122.286;2023-03-11T02:05:03;14.80;70.60
72883;DHT22;61017;37.812;-122.286;2023-03-11T02:06:35;14.80;70.40
72883;DHT22;61017;37.812;-122.286;2023-03-11T02:08:07;14.80;70.00
72883;DHT22;61017;37.812;-122.286;2023-03-11T02:09:39;14.80;69.90
72883;DHT22;61017;37.812;-122.286;2023-03-11T02:11:18;14.80;69.50
72883;DHT22;61017;37.812;-122.286;2023-03-11T02:12:51;14.80;69.10
72883;DHT22;61017;37.812;-122.286;2023-03-11T02:14:27;14.80;70.00
72883;DHT22;61017;37.812;-122.286;2023-03-11T02:16:00;14.80;70.90
72883;DHT22;61017;37.812;-122.286;2023-03-11T02:17:33;14.80;70.50
72883;DHT22;61017;37.812;-122.286;2023-03-11T02:19:31;14.80;70.10
72883;DHT22;61017;37.812;-122.286;2023-03-11T02:21:31;14.80;69.90
72883;DHT22;61017;37.812;-122.286;2023-03-11T02:23:03;14.80;69.20
72883;DHT22;61017;37.812;-122.286;2023-03-11T02:27:58;14.80;71.20
72883;DHT22;61017;37.812;-122.286;2023-03-11T02:29:32;14.80;70.10
72883;DHT22;61017;37.812;-122.286;2023-03-11T02:31:04;14.80;70.00
72883;DHT22;61017;37.812;-122.286;2023-03-11T02:32:36;14.80;69.40
72883;DHT22;61017;37.812;-122.286;2023-03-11T02:34:15;14.80;69.20
72883;DHT22;61017;37.812;-122.286;2023-03-11T02:35:49;14.80;68.80
72883;DHT22;61017;37.812;-122.286;2023-03-11T02:37:21;14.80;69.20
72883;DHT22;61017;37.812;-122.286;2023-03-11T02:38:54;14.80;70.10
72883;DHT22;61017;37.812;-122.286;2023-03-11T02:40:34;14.80;70.40
72883;DHT22;61017;37.812;-122.286;2023-03-11T02:42:14;14.80;70.00
72883;DHT22;61017;37.812;-122.286;2023-03-11T02:43:47;14.80;69.70
72883;DHT22;61017;37.812;-122.286;2023-03-11T02:45:21;14.80;69.20
72883;DHT22;61017;37.812;-122.286;2023-03-11T02:46:55;14.80;69.00
72883;DHT22;61017;37.812;-122.286;2023-03-11T02:48:28;14.80;68.90
72883;DHT22;61017;37.812;-122.286;2023-03-11T02:50:03;14.80;69.40
72883;DHT22;61017;37.812;-122.286;2023-03-11T02:51:38;14.80;70.30
72883;DHT22;61017;37.812;-122.286;2023-03-11T02:53:10;14.80;70.20
72883;DHT22;61017;37.812;-122.286;2023-03-11T02:54:41;14.80;69.60
72883;DHT22;61017;37.812;-122.286;2023-03-11T02:56:14;14.80;69.40
72883;DHT22;61017;37.812;-122.286;2023-03-11T02:57:47;14.80;69.00
72883;DHT22;61017;37.812;-122.286;2023-03-11T02:59:18;14.80;68.60
72883;DHT22;61017;37.812;-122.286;2023-03-11T03:01:14;14.80;68.70
72883;DHT22;61017;37.812;-122.286;2023-03-11T03:02:46;14.80;70.20
72883;DHT22;61017;37.812;-122.286;2023-03-11T03:04:18;14.80;70.10
72883;DHT22;61017;37.812;-122.286;2023-03-11T03:05:50;14.80;69.60
72883;DHT22;61017;37.812;-122.286;2023-03-11T03:07:21;14.80;69.30
72883;DHT22;61017;37.812;-122.286;2023-03-11T03:08:53;14.90;69.30
72883;DHT22;61017;37.812;-122.286;2023-03-11T03:10:25;14.90;68.70
72883;DHT22;61017;37.812;-122.286;2023-03-11T03:11:57;14.90;69.00
72883;DHT22;61017;37.812;-122.286;2023-03-11T03:13:28;14.90;69.40
72883;DHT22;61017;37.812;-122.286;2023-03-11T03:15:00;14.90;69.90
72883;DHT22;61017;37.812;-122.286;2023-03-11T03:16:32;15.00;69.40
72883;DHT22;61017;37.812;-122.286;2023-03-11T03:18:03;15.00;69.60
72883;DHT22;61017;37.812;-122.286;2023-03-11T03:19:35;14.90;69.10
72883;DHT22;61017;37.812;-122.286;2023-03-11T03:21:07;14.90;69.00
72883;DHT22;61017;37.812;-122.286;2023-03-11T03:22:40;14.90;68.60
72883;DHT22;61017;37.812;-122.286;2023-03-11T03:24:12;14.90;68.80
72883;DHT22;61017;37.812;-122.286;2023-03-11T03:25:44;14.90;69.80
72883;DHT22;61017;37.812;-122.286;2023-03-11T03:27:16;14.90;70.30
72883;DHT22;61017;37.812;-122.286;2023-03-11T03:28:48;14.90;69.60
72883;DHT22;61017;37.812;-122.286;2023-03-11T03:30:20;14.90;69.20
72883;DHT22;61017;37.812;-122.286;2023-03-11T03:31:51;14.90;69.00
72883;DHT22;61017;37.812;-122.286;2023-03-11T03:33:23;14.90;68.50
72883;DHT22;61017;37.812;-122.286;2023-03-11T03:34:54;14.90;68.40
72883;DHT22;61017;37.812;-122.286;2023-03-11T03:36:26;14.90;68.90
72883;DHT22;61017;37.812;-122.286;2023-03-11T03:37:59;14.90;70.10
72883;DHT22;61017;37.812;-122.286;2023-03-11T03:39:31;14.90;69.80
72883;DHT22;61017;37.812;-122.286;2023-03-11T03:41:03;14.90;69.40
72883;DHT22;61017;37.812;-122.286;2023-03-11T03:42:36;14.90;69.20
72883;DHT22;61017;37.812;-122.286;2023-03-11T03:44:08;14.90;69.00
72883;DHT22;61017;37.812;-122.286;2023-03-11T03:45:39;14.90;68.50
72883;DHT22;61017;37.812;-122.286;2023-03-11T03:47:11;14.90;68.50
72883;DHT22;61017;37.812;-122.286;2023-03-11T03:48:42;14.80;68.80
72883;DHT22;61017;37.812;-122.286;2023-03-11T03:50:14;14.90;69.60
72883;DHT22;61017;37.812;-122.286;2023-03-11T03:51:46;14.90;69.40
72883;DHT22;61017;37.812;-122.286;2023-03-11T03:53:18;14.90;69.20
72883;DHT22;61017;37.812;-122.286;2023-03-11T03:54:49;14.90;69.00
72883;DHT22;61017;37.812;-122.286;2023-03-11T03:56:21;14.90;68.70
72883;DHT22;61017;37.812;-122.286;2023-03-11T03:57:53;14.90;68.40
72883;DHT22;61017;37.812;-122.286;2023-03-11T03:59:24;14.90;68.50
72883;DHT22;61017;37.812;-122.286;2023-03-11T04:00:57;14.90;69.40
72883;DHT22;61017;37.812;-122.286;2023-03-11T04:02:29;14.90;69.10
72883;DHT22;61017;37.812;-122.286;2023-03-11T04:04:01;14.90;69.10
72883;DHT22;61017;37.812;-122.286;2023-03-11T04:05:32;14.90;68.40
72883;DHT22;61017;37.812;-122.286;2023-03-11T04:07:05;14.90;68.30
72883;DHT22;61017;37.812;-122.286;2023-03-11T04:08:37;14.90;68.00
72883;DHT22;61017;37.812;-122.286;2023-03-11T04:10:09;14.90;67.60
72883;DHT22;61017;37.812;-122.286;2023-03-11T04:11:40;14.90;68.30
72883;DHT22;61017;37.812;-122.286;2023-03-11T04:13:12;14.90;69.00
72883;DHT22;61017;37.812;-122.286;2023-03-11T04:14:44;14.90;68.90
72883;DHT22;61017;37.812;-122.286;2023-03-11T04:16:18;14.90;68.30
72883;DHT22;61017;37.812;-122.286;2023-03-11T04:17:50;14.90;68.10
72883;DHT22;61017;37.812;-122.286;2023-03-11T04:19:22;14.90;67.70
72883;DHT22;61017;37.812;-122.286;2023-03-11T04:20:54;14.90;67.80
72883;DHT22;61017;37.812;-122.286;2023-03-11T04:22:25;14.90;67.70
72883;DHT22;61017;37.812;-122.286;2023-03-11T04:23:57;14.90;68.80
72883;DHT22;61017;37.812;-122.286;2023-03-11T04:25:29;14.90;69.40
72883;DHT22;61017;37.812;-122.286;2023-03-11T04:27:00;14.90;68.90
72883;DHT22;61017;37.812;-122.286;2023-03-11T04:28:32;14.90;68.20
72883;DHT22;61017;37.812;-122.286;2023-03-11T04:30:05;14.90;68.00
72883;DHT22;61017;37.812;-122.286;2023-03-11T04:31:37;14.90;67.70
72883;DHT22;61017;37.812;-122.286;2023-03-11T04:33:08;14.90;67.30
72883;DHT22;61017;37.812;-122.286;2023-03-11T04:34:40;14.90;67.80
72883;DHT22;61017;37.812;-122.286;2023-03-11T04:36:12;14.90;69.00
72883;DHT22;61017;37.812;-122.286;2023-03-11T04:37:43;14.90;69.00
72883;DHT22;61017;37.812;-122.286;2023-03-11T04:39:15;14.90;68.80
72883;DHT22;61017;37.812;-122.286;2023-03-11T04:40:47;15.00;68.50
72883;DHT22;61017;37.812;-122.286;2023-03-11T04:42:19;14.90;68.10
72883;DHT22;61017;37.812;-122.286;2023-03-11T04:43:50;14.90;67.70
72883;DHT22;61017;37.812;-122.286;2023-03-11T04:45:22;14.90;67.40
72883;DHT22;61017;37.812;-122.286;2023-03-11T04:46:53;14.90;67.90
72883;DHT22;61017;37.812;-122.286;2023-03-11T04:48:25;15.00;68.80
72883;DHT22;61017;37.812;-122.286;2023-03-11T04:49:56;15.00;68.60
72883;DHT22;61017;37.812;-122.286;2023-03-11T04:51:28;15.00;68.50
72883;DHT22;61017;37.812;-122.286;2023-03-11T04:53:00;15.00;68.20
72883;DHT22;61017;37.812;-122.286;2023-03-11T04:54:32;15.00;67.80
72883;DHT22;61017;37.812;-122.286;2023-03-11T04:56:04;14.90;67.70
72883;DHT22;61017;37.812;-122.286;2023-03-11T04:57:36;15.00;67.50
72883;DHT22;61017;37.812;-122.286;2023-03-11T04:59:07;14.90;68.10
72883;DHT22;61017;37.812;-122.286;2023-03-11T05:00:39;15.00;68.50
72883;DHT22;61017;37.812;-122.286;2023-03-11T05:02:10;15.00;68.30
72883;DHT22;61017;37.812;-122.286;2023-03-11T05:03:42;15.00;67.80
72883;DHT22;61017;37.812;-122.286;2023-03-11T05:05:13;15.00;67.90
72883;DHT22;61017;37.812;-122.286;2023-03-11T05:06:45;15.00;67.30
72883;DHT22;61017;37.812;-122.286;2023-03-11T05:08:17;15.00;67.10
72883;DHT22;61017;37.812;-122.286;2023-03-11T05:09:49;15.00;67.20
72883;DHT22;61017;37.812;-122.286;2023-03-11T05:11:20;14.90;68.10
72883;DHT22;61017;37.812;-122.286;2023-03-11T05:12:52;15.00;68.50
72883;DHT22;61017;37.812;-122.286;2023-03-11T05:14:24;15.00;68.00
72883;DHT22;61017;37.812;-122.286;2023-03-11T05:15:55;15.00;67.60
72883;DHT22;61017;37.812;-122.286;2023-03-11T05:17:27;15.00;67.60
72883;DHT22;61017;37.812;-122.286;2023-03-11T05:18:58;15.00;67.00
72883;DHT22;61017;37.812;-122.286;2023-03-11T05:20:30;15.00;66.60
72883;DHT22;61017;37.812;-122.286;2023-03-11T05:22:03;15.00;67.40
72883;DHT22;61017;37.812;-122.286;2023-03-11T05:23:35;15.00;68.50
72883;DHT22;61017;37.812;-122.286;2023-03-11T05:25:07;15.00;68.50
72883;DHT22;61017;37.812;-122.286;2023-03-11T05:26:39;15.00;68.10
72883;DHT22;61017;37.812;-122.286;2023-03-11T05:28:10;15.00;68.10
72883;DHT22;61017;37.812;-122.286;2023-03-11T05:29:43;15.00;67.70
72883;DHT22;61017;37.812;-122.286;2023-03-11T05:31:14;15.00;67.50
72883;DHT22;61017;37.812;-122.286;2023-03-11T05:32:46;15.00;67.40
72883;DHT22;61017;37.812;-122.286;2023-03-11T05:34:18;14.90;68.10
72883;DHT22;61017;37.812;-122.286;2023-03-11T05:35:50;15.00;69.00
72883;DHT22;61017;37.812;-122.286;2023-03-11T05:37:21;15.00;68.90
72883;DHT22;61017;37.812;-122.286;2023-03-11T05:38:53;15.00;68.20
72883;DHT22;61017;37.812;-122.286;2023-03-11T05:40:25;15.00;68.10
72883;DHT22;61017;37.812;-122.286;2023-03-11T05:41:56;15.00;67.80
72883;DHT22;61017;37.812;-122.286;2023-03-11T05:43:28;15.00;67.50
72883;DHT22;61017;37.812;-122.286;2023-03-11T05:45:00;15.00;67.30
72883;DHT22;61017;37.812;-122.286;2023-03-11T05:46:31;14.90;68.40
72883;DHT22;61017;37.812;-122.286;2023-03-11T05:48:03;15.00;68.30
72883;DHT22;61017;37.812;-122.286;2023-03-11T05:49:35;15.00;68.00
72883;DHT22;61017;37.812;-122.286;2023-03-11T05:51:08;15.00;68.00
72883;DHT22;61017;37.812;-122.286;2023-03-11T05:52:40;15.00;67.60
72883;DHT22;61017;37.812;-122.286;2023-03-11T05:54:14;15.00;67.20
72883;DHT22;61017;37.812;-122.286;2023-03-11T05:55:55;15.00;67.20
72883;DHT22;61017;37.812;-122.286;2023-03-11T05:57:27;15.00;67.60
72883;DHT22;61017;37.812;-122.286;2023-03-11T05:58:58;15.00;68.60
72883;DHT22;61017;37.812;-122.286;2023-03-11T06:00:30;15.00;68.90
72883;DHT22;61017;37.812;-122.286;2023-03-11T06:02:01;15.00;68.10
72883;DHT22;61017;37.812;-122.286;2023-03-11T06:03:33;15.00;68.00
72883;DHT22;61017;37.812;-122.286;2023-03-11T06:05:05;15.00;67.80
72883;DHT22;61017;37.812;-122.286;2023-03-11T06:06:38;15.00;67.70
72883;DHT22;61017;37.812;-122.286;2023-03-11T06:08:10;15.00;67.40
72883;DHT22;61017;37.812;-122.286;2023-03-11T06:09:41;15.00;68.20
72883;DHT22;61017;37.812;-122.286;2023-03-11T06:11:13;15.00;69.30
72883;DHT22;61017;37.812;-122.286;2023-03-11T06:12:44;15.00;68.70
72883;DHT22;61017;37.812;-122.286;2023-03-11T06:14:16;15.00;68.40
72883;DHT22;61017;37.812;-122.286;2023-03-11T06:15:48;15.00;68.10
72883;DHT22;61017;37.812;-122.286;2023-03-11T06:17:19;15.00;67.70
72883;DHT22;61017;37.812;-122.286;2023-03-11T06:18:51;15.00;67.60
72883;DHT22;61017;37.812;-122.286;2023-03-11T06:20:23;15.00;67.90
72883;DHT22;61017;37.812;-122.286;2023-03-11T06:21:54;15.00;69.80
72883;DHT22;61017;37.812;-122.286;2023-03-11T06:23:27;15.00;69.20
72883;DHT22;61017;37.812;-122.286;2023-03-11T06:24:58;15.00;68.60
72883;DHT22;61017;37.812;-122.286;2023-03-11T06:26:30;15.00;68.30
72883;DHT22;61017;37.812;-122.286;2023-03-11T06:28:02;15.00;68.00
72883;DHT22;61017;37.812;-122.286;2023-03-11T06:29:33;15.00;67.70
72883;DHT22;61017;37.812;-122.286;2023-03-11T06:31:10;15.00;67.70
72883;DHT22;61017;37.812;-122.286;2023-03-11T06:32:45;15.00;68.10
72883;DHT22;61017;37.812;-122.286;2023-03-11T06:34:17;15.00;69.10
72883;DHT22;61017;37.812;-122.286;2023-03-11T06:36:02;15.00;68.70
72883;DHT22;61017;37.812;-122.286;2023-03-11T06:37:37;15.00;68.60
72883;DHT22;61017;37.812;-122.286;2023-03-11T06:39:12;15.00;67.80
72883;DHT22;61017;37.812;-122.286;2023-03-11T06:40:44;15.00;67.60
72883;DHT22;61017;37.812;-122.286;2023-03-11T06:42:15;15.00;67.40
72883;DHT22;61017;37.812;-122.286;2023-03-11T06:43:47;15.00;67.60
72883;DHT22;61017;37.812;-122.286;2023-03-11T06:45:19;15.00;68.80
72883;DHT22;61017;37.812;-122.286;2023-03-11T06:46:50;14.90;69.00
72883;DHT22;61017;37.812;-122.286;2023-03-11T06:48:22;15.00;68.60
72883;DHT22;61017;37.812;-122.286;2023-03-11T06:49:54;15.00;68.20
72883;DHT22;61017;37.812;-122.286;2023-03-11T06:51:45;15.00;67.80
72883;DHT22;61017;37.812;-122.286;2023-03-11T06:53:17;15.00;67.70
72883;DHT22;61017;37.812;-122.286;2023-03-11T06:54:49;15.00;68.00
72883;DHT22;61017;37.812;-122.286;2023-03-11T06:56:22;14.90;68.30
72883;DHT22;61017;37.812;-122.286;2023-03-11T06:57:53;15.00;69.00
72883;DHT22;61017;37.812;-122.286;2023-03-11T06:59:25;15.00;68.70
72883;DHT22;61017;37.812;-122.286;2023-03-11T07:01:05;15.00;68.30
72883;DHT22;61017;37.812;-122.286;2023-03-11T07:02:37;15.00;67.90
72883;DHT22;61017;37.812;-122.286;2023-03-11T07:04:09;15.00;67.80
72883;DHT22;61017;37.812;-122.286;2023-03-11T07:05:41;15.00;67.20
72883;DHT22;61017;37.812;-122.286;2023-03-11T07:07:13;15.00;67.60
72883;DHT22;61017;37.812;-122.286;2023-03-11T07:08:46;15.00;68.60
72883;DHT22;61017;37.812;-122.286;2023-03-11T07:10:18;15.00;68.30
72883;DHT22;61017;37.812;-122.286;2023-03-11T07:11:50;15.00;68.00
72883;DHT22;61017;37.812;-122.286;2023-03-11T07:13:21;15.00;67.50
72883;DHT22;61017;37.812;-122.286;2023-03-11T07:14:57;15.00;67.30
72883;DHT22;61017;37.812;-122.286;2023-03-11T07:16:30;15.00;66.80
72883;DHT22;61017;37.812;-122.286;2023-03-11T07:18:01;15.00;67.10
72883;DHT22;61017;37.812;-122.286;2023-03-11T07:19:33;15.00;67.60
72883;DHT22;61017;37.812;-122.286;2023-03-11T07:21:06;15.00;68.10
72883;DHT22;61017;37.812;-122.286;2023-03-11T07:22:38;15.00;68.00
72883;DHT22;61017;37.812;-122.286;2023-03-11T07:24:12;15.00;67.50
72883;DHT22;61017;37.812;-122.286;2023-03-11T07:25:47;15.00;67.40
72883;DHT22;61017;37.812;-122.286;2023-03-11T07:27:19;15.00;67.10
72883;DHT22;61017;37.812;-122.286;2023-03-11T07:28:52;15.00;67.00
72883;DHT22;61017;37.812;-122.286;2023-03-11T07:30:23;15.00;67.10
72883;DHT22;61017;37.812;-122.286;2023-03-11T07:31:55;14.90;68.10
72883;DHT22;61017;37.812;-122.286;2023-03-11T07:33:27;15.00;68.30
72883;DHT22;61017;37.812;-122.286;2023-03-11T07:34:58;15.00;67.80
72883;DHT22;61017;37.812;-122.286;2023-03-11T07:36:30;15.00;67.30
72883;DHT22;61017;37.812;-122.286;2023-03-11T07:38:02;15.00;67.10
72883;DHT22;61017;37.812;-122.286;2023-03-11T07:39:33;15.00;67.10
72883;DHT22;61017;37.812;-122.286;2023-03-11T07:41:05;15.00;66.90
72883;DHT22;61017;37.812;-122.286;2023-03-11T07:42:37;15.00;67.30
72883;DHT22;61017;37.812;-122.286;2023-03-11T07:44:10;15.00;68.20
72883;DHT22;61017;37.812;-122.286;2023-03-11T07:45:42;15.00;67.80
72883;DHT22;61017;37.812;-122.286;2023-03-11T07:47:13;15.00;68.20
72883;DHT22;61017;37.812;-122.286;2023-03-11T07:48:45;15.00;66.80
72883;DHT22;61017;37.812;-122.286;2023-03-11T07:50:17;15.00;66.40
72883;DHT22;61017;37.812;-122.286;2023-03-11T07:51:48;15.00;66.30
72883;DHT22;61017;37.812;-122.286;2023-03-11T07:53:20;15.00;66.70
72883;DHT22;61017;37.812;-122.286;2023-03-11T07:54:51;15.00;67.80
72883;DHT22;61017;37.812;-122.286;2023-03-11T07:56:24;15.00;68.00
72883;DHT22;61017;37.812;-122.286;2023-03-11T07:57:56;15.00;67.90
72883;DHT22;61017;37.812;-122.286;2023-03-11T07:59:27;15.00;67.20
72883;DHT22;61017;37.812;-122.286;2023-03-11T08:01:06;15.00;67.20
72883;DHT22;61017;37.812;-122.286;2023-03-11T08:02:38;15.00;66.40
72883;DHT22;61017;37.812;-122.286;2023-03-11T08:04:10;15.00;66.60
72883;DHT22;61017;37.812;-122.286;2023-03-11T08:05:41;15.00;66.80
72883;DHT22;61017;37.812;-122.286;2023-03-11T08:07:13;15.00;67.70
72883;DHT22;61017;37.812;-122.286;2023-03-11T08:08:45;15.00;67.30
72883;DHT22;61017;37.812;-122.286;2023-03-11T08:10:17;15.00;67.00
72883;DHT22;61017;37.812;-122.286;2023-03-11T08:11:48;15.00;66.60
72883;DHT22;61017;37.812;-122.286;2023-03-11T08:13:20;15.00;66.70
72883;DHT22;61017;37.812;-122.286;2023-03-11T08:14:52;15.00;66.30
72883;DHT22;61017;37.812;-122.286;2023-03-11T08:16:24;15.00;66.20
72883;DHT22;61017;37.812;-122.286;2023-03-11T08:17:55;15.00;66.90
72883;DHT22;61017;37.812;-122.286;2023-03-11T08:19:27;15.00;68.40
72883;DHT22;61017;37.812;-122.286;2023-03-11T08:21:02;15.00;67.30
72883;DHT22;61017;37.812;-122.286;2023-03-11T08:22:34;15.00;67.00
72883;DHT22;61017;37.812;-122.286;2023-03-11T08:24:06;15.00;66.70
72883;DHT22;61017;37.812;-122.286;2023-03-11T08:25:39;15.00;66.40
72883;DHT22;61017;37.812;-122.286;2023-03-11T08:27:10;15.00;66.30
72883;DHT22;61017;37.812;-122.286;2023-03-11T08:28:42;15.00;66.50
72883;DHT22;61017;37.812;-122.286;2023-03-11T08:30:14;15.00;67.30
72883;DHT22;61017;37.812;-122.286;2023-03-11T08:31:46;15.00;67.50
72883;DHT22;61017;37.812;-122.286;2023-03-11T08:33:18;15.00;67.00
72883;DHT22;61017;37.812;-122.286;2023-03-11T08:34:49;15.00;66.90
72883;DHT22;61017;37.812;-122.286;2023-03-11T08:36:21;15.00;66.50
72883;DHT22;61017;37.812;-122.286;2023-03-11T08:37:52;15.00;66.10
72883;DHT22;61017;37.812;-122.286;2023-03-11T08:39:24;15.00;65.90
72883;DHT22;61017;37.812;-122.286;2023-03-11T08:40:55;15.00;66.70
72883;DHT22;61017;37.812;-122.286;2023-03-11T08:42:27;15.00;67.20
72883;DHT22;61017;37.812;-122.286;2023-03-11T08:43:59;15.00;67.40
72883;DHT22;61017;37.812;-122.286;2023-03-11T08:45:31;15.00;67.60
72883;DHT22;61017;37.812;-122.286;2023-03-11T08:47:02;15.00;66.60
72883;DHT22;61017;37.812;-122.286;2023-03-11T08:48:35;15.00;66.30
72883;DHT22;61017;37.812;-122.286;2023-03-11T08:50:12;15.00;66.30
72883;DHT22;61017;37.812;-122.286;2023-03-11T08:51:43;15.00;66.30
72883;DHT22;61017;37.812;-122.286;2023-03-11T08:53:15;15.00;66.80
72883;DHT22;61017;37.812;-122.286;2023-03-11T08:54:47;15.00;67.40
72883;DHT22;61017;37.812;-122.286;2023-03-11T08:56:19;15.00;67.10
72883;DHT22;61017;37.812;-122.286;2023-03-11T08:57:50;15.00;66.90
72883;DHT22;61017;37.812;-122.286;2023-03-11T08:59:22;15.00;66.60
72883;DHT22;61017;37.812;-122.286;2023-03-11T09:00:54;15.00;66.10
72883;DHT22;61017;37.812;-122.286;2023-03-11T09:02:26;15.00;66.10
72883;DHT22;61017;37.812;-122.286;2023-03-11T09:03:57;15.00;66.10
72883;DHT22;61017;37.812;-122.286;2023-03-11T09:05:29;15.00;67.20
72883;DHT22;61017;37.812;-122.286;2023-03-11T09:07:00;15.00;67.30
72883;DHT22;61017;37.812;-122.286;2023-03-11T09:08:32;15.00;67.10
72883;DHT22;61017;37.812;-122.286;2023-03-11T09:10:05;15.00;66.70
72883;DHT22;61017;37.812;-122.286;2023-03-11T09:13:27;15.00;66.20
72883;DHT22;61017;37.812;-122.286;2023-03-11T09:14:59;15.00;66.00
72883;DHT22;61017;37.812;-122.286;2023-03-11T09:16:30;15.00;66.70
72883;DHT22;61017;37.812;-122.286;2023-03-11T09:18:02;15.00;67.30
72883;DHT22;61017;37.812;-122.286;2023-03-11T09:19:34;15.00;67.20
72883;DHT22;61017;37.812;-122.286;2023-03-11T09:21:05;15.00;67.10
72883;DHT22;61017;37.812;-122.286;2023-03-11T09:22:37;15.00;66.50
72883;DHT22;61017;37.812;-122.286;2023-03-11T09:24:09;15.00;66.50
72883;DHT22;61017;37.812;-122.286;2023-03-11T09:25:40;15.00;66.10